sensor_id;sensor_type;location;lat;lon;timestamp;P1;durP1;ratioP1;P2;durP2;ratioP2
10701;SDS011;5402;50.004;8.246;2023-05-14T00:01:15;7.23;;;5.73;;
10701;SDS011;5402;50.004;8.246;2023-05-14T00:03:41;6.50;;;5.90;;
10701;SDS011;5402;50.004;8.246;2023-05-14T00:06:08;6.67;;;5.93;;
10701;SDS011;5402;50.004;8.246;2023-05-14T00:08:36;6.20;;;5.60;;
10701;SDS011;5402;50.004;8.246;2023-05-14T00:11:03;8.27;;;6.20;;
10701;SDS011;5402;50.004;8.246;2023-05-14T00:13:29;7.97;;;5.67;;
10701;SDS011;5402;50.004;8.246;2023-05-14T00:15:56;7.57;;;5.97;;
10701;SDS011;5402;50.004;8.246;2023-05-14T00:18:23;7.67;;;5.73;;
10701;SDS011;5402;50.004;8.246;2023-05-14T00:20:50;6.80;;;6.03;;
10701;SDS011;5402;50.004;8.246;2023-05-14T00:23:19;6.90;;;5.93;;
10701;SDS011;5402;50.004;8.246;2023-05-14T00:25:47;7.13;;;6.07;;
10701;SDS011;5402;50.004;8.246;2023-05-14T00:28:14;7.30;;;6.00;;
10701;SDS011;5402;50.004;8.246;2023-05-14T00:30:40;6.63;;;5.70;;
10701;SDS011;5402;50.004;8.246;2023-05-14T00:33:07;8.40;;;6.00;;
10701;SDS011;5402;50.004;8.246;2023-05-14T00:35:34;8.07;;;6.53;;
10701;SDS011;5402;50.004;8.246;2023-05-14T00:38:01;7.87;;;6.37;;
10701;SDS011;5402;50.004;8.246;2023-05-14T00:40:28;9.77;;;6.40;;
10701;SDS011;5402;50.004;8.246;2023-05-14T00:42:56;7.53;;;6.27;;
10701;SDS011;5402;50.004;8.246;2023-05-14T00:45:23;7.13;;;6.43;;
10701;SDS011;5402;50.004;8.246;2023-05-14T00:47:51;8.60;;;6.50;;
10701;SDS011;5402;50.004;8.246;2023-05-14T00:50:18;8.67;;;6.40;;
10701;SDS011;5402;50.004;8.246;2023-05-14T00:52:45;8.40;;;6.67;;
10701;SDS011;5402;50.004;8.246;2023-05-14T00:55:13;6.97;;;6.20;;
10701;SDS011;5402;50.004;8.246;2023-05-14T00:57:41;7.70;;;6.20;;
10701;SDS011;5402;50.004;8.246;2023-05-14T01:00:10;10.27;;;6.60;;
10701;SDS011;5402;50.004;8.246;2023-05-14T01:02:37;7.07;;;6.00;;
10701;SDS011;5402;50.004;8.246;2023-05-14T01:05:04;7.70;;;6.20;;
10701;SDS011;5402;50.004;8.246;2023-05-14T01:07:35;6.83;;;6.00;;
10701;SDS011;5402;50.004;8.246;2023-05-14T01:10:14;6.90;;;6.20;;
10701;SDS011;5402;50.004;8.246;2023-05-14T01:12:46;6.33;;;5.73;;
10701;SDS011;5402;50.004;8.246;2023-05-14T01:15:22;6.53;;;5.83;;
10701;SDS011;5402;50.004;8.246;2023-05-14T01:17:54;7.37;;;6.47;;
10701;SDS011;5402;50.004;8.246;2023-05-14T01:20:24;7.07;;;5.77;;
10701;SDS011;5402;50.004;8.246;2023-05-14T01:22:52;6.57;;;5.87;;
10701;SDS011;5402;50.004;8.246;2023-05-14T01:25:19;8.33;;;6.50;;
10701;SDS011;5402;50.004;8.246;2023-05-14T01:27:48;6.90;;;6.03;;
10701;SDS011;5402;50.004;8.246;2023-05-14T01:30:21;6.37;;;5.50;;
10701;SDS011;5402;50.004;8.246;2023-05-14T01:32:52;7.23;;;6.00;;
10701;SDS011;5402;50.004;8.246;2023-05-14T01:35:22;5.80;;;5.23;;
10701;SDS011;5402;50.004;8.246;2023-05-14T01:37:53;8.80;;;6.00;;
10701;SDS011;5402;50.004;8.246;2023-05-14T01:40:21;7.07;;;5.93;;
10701;SDS011;5402;50.004;8.246;2023-05-14T01:42:49;6.90;;;5.97;;
10701;SDS011;5402;50.004;8.246;2023-05-14T01:45:16;6.63;;;6.03;;
10701;SDS011;5402;50.004;8.246;2023-05-14T01:47:43;7.00;;;6.30;;
10701;SDS011;5402;50.004;8.246;2023-05-14T01:50:09;9.73;;;5.90;;
10701;SDS011;5402;50.004;8.246;2023-05-14T01:52:36;9.90;;;6.43;;
10701;SDS011;5402;50.004;8.246;2023-05-14T01:55:05;6.80;;;6.10;;
10701;SDS011;5402;50.004;8.246;2023-05-14T01:57:32;7.20;;;6.20;;
10701;SDS011;5402;50.004;8.246;2023-05-14T01:59:59;6.70;;;6.00;;
10701;SDS011;5402;50.004;8.246;2023-05-14T02:02:26;6.60;;;5.90;;
10701;SDS011;5402;50.004;8.246;2023-05-14T02:04:52;7.37;;;6.27;;
10701;SDS011;5402;50.004;8.246;2023-05-14T02:07:19;6.83;;;6.00;;
10701;SDS011;5402;50.004;8.246;2023-05-14T02:09:46;6.50;;;5.80;;
10701;SDS011;5402;50.004;8.246;2023-05-14T02:12:14;7.10;;;5.87;;
10701;SDS011;5402;50.004;8.246;2023-05-14T02:14:40;8.80;;;6.03;;
10701;SDS011;5402;50.004;8.246;2023-05-14T02:17:07;6.47;;;5.23;;
10701;SDS011;5402;50.004;8.246;2023-05-14T02:19:34;7.10;;;5.63;;
10701;SDS011;5402;50.004;8.246;2023-05-14T02:22:00;6.07;;;5.50;;
10701;SDS011;5402;50.004;8.246;2023-05-14T02:24:27;7.67;;;5.40;;
10701;SDS011;5402;50.004;8.246;2023-05-14T02:26:54;6.20;;;5.60;;
10701;SDS011;5402;50.004;8.246;2023-05-14T02:29:22;8.87;;;6.30;;
10701;SDS011;5402;50.004;8.246;2023-05-14T02:31:48;6.20;;;5.47;;
10701;SDS011;5402;50.004;8.246;2023-05-14T02:34:15;6.17;;;5.00;;
10701;SDS011;5402;50.004;8.246;2023-05-14T02:36:42;7.10;;;5.30;;
10701;SDS011;5402;50.004;8.246;2023-05-14T02:39:09;6.00;;;5.40;;
10701;SDS011;5402;50.004;8.246;2023-05-14T02:41:35;7.43;;;5.43;;
10701;SDS011;5402;50.004;8.246;2023-05-14T02:44:02;6.13;;;5.53;;
10701;SDS011;5402;50.004;8.246;2023-05-14T02:46:30;6.30;;;5.70;;
10701;SDS011;5402;50.004;8.246;2023-05-14T02:48:57;6.77;;;5.97;;
10701;SDS011;5402;50.004;8.246;2023-05-14T02:51:24;6.73;;;5.60;;
10701;SDS011;5402;50.004;8.246;2023-05-14T02:53:51;7.13;;;5.37;;
10701;SDS011;5402;50.004;8.246;2023-05-14T02:56:18;7.27;;;5.97;;
10701;SDS011;5402;50.004;8.246;2023-05-14T02:58:45;6.87;;;5.73;;
10701;SDS011;5402;50.004;8.246;2023-05-14T03:01:12;5.57;;;4.93;;
10701;SDS011;5402;50.004;8.246;2023-05-14T03:03:40;6.73;;;5.73;;
10701;SDS011;5402;50.004;8.246;2023-05-14T03:06:07;6.10;;;5.43;;
10701;SDS011;5402;50.004;8.246;2023-05-14T03:08:34;6.03;;;5.13;;
10701;SDS011;5402;50.004;8.246;2023-05-14T03:11:00;6.33;;;5.57;;
10701;SDS011;5402;50.004;8.246;2023-05-14T03:13:27;6.70;;;6.00;;
10701;SDS011;5402;50.004;8.246;2023-05-14T03:15:54;5.90;;;5.27;;
10701;SDS011;5402;50.004;8.246;2023-05-14T03:18:20;5.43;;;4.93;;
10701;SDS011;5402;50.004;8.246;2023-05-14T03:20:49;7.13;;;5.20;;
10701;SDS011;5402;50.004;8.246;2023-05-14T03:23:15;6.23;;;5.63;;
10701;SDS011;5402;50.004;8.246;2023-05-14T03:25:42;6.07;;;5.13;;
10701;SDS011;5402;50.004;8.246;2023-05-14T03:28:09;6.23;;;5.53;;
10701;SDS011;5402;50.004;8.246;2023-05-14T03:30:35;7.20;;;5.37;;
10701;SDS011;5402;50.004;8.246;2023-05-14T03:33:02;8.43;;;5.47;;
10701;SDS011;5402;50.004;8.246;2023-05-14T03:35:29;6.80;;;5.37;;
10701;SDS011;5402;50.004;8.246;2023-05-14T03:37:57;6.63;;;5.80;;
10701;SDS011;5402;50.004;8.246;2023-05-14T03:40:24;6.30;;;5.03;;
10701;SDS011;5402;50.004;8.246;2023-05-14T03:42:51;8.20;;;5.73;;
10701;SDS011;5402;50.004;8.246;2023-05-14T03:45:17;5.90;;;5.30;;
10701;SDS011;5402;50.004;8.246;2023-05-14T03:47:44;5.97;;;5.37;;
10701;SDS011;5402;50.004;8.246;2023-05-14T03:50:11;6.53;;;5.57;;
10701;SDS011;5402;50.004;8.246;2023-05-14T03:52:38;6.20;;;5.37;;
10701;SDS011;5402;50.004;8.246;2023-05-14T03:55:07;8.53;;;5.43;;
10701;SDS011;5402;50.004;8.246;2023-05-14T03:57:34;6.63;;;5.53;;
10701;SDS011;5402;50.004;8.246;2023-05-14T04:00:01;6.03;;;5.07;;
10701;SDS011;5402;50.004;8.246;2023-05-14T04:02:27;6.70;;;5.10;;
10701;SDS011;5402;50.004;8.246;2023-05-14T04:04:54;6.37;;;5.73;;
10701;SDS011;5402;50.004;8.246;2023-05-14T04:07:21;5.63;;;4.90;;
10701;SDS011;5402;50.004;8.246;2023-05-14T04:09:48;6.23;;;5.63;;
10701;SDS011;5402;50.004;8.246;2023-05-14T04:12:16;5.70;;;5.20;;
10701;SDS011;5402;50.004;8.246;2023-05-14T04:14:42;6.23;;;5.10;;
10701;SDS011;5402;50.004;8.246;2023-05-14T04:17:09;7.30;;;5.87;;
10701;SDS011;5402;50.004;8.246;2023-05-14T04:19:36;6.67;;;5.40;;
10701;SDS011;5402;50.004;8.246;2023-05-14T04:22:03;5.87;;;5.27;;
10701;SDS011;5402;50.004;8.246;2023-05-14T04:24:30;6.13;;;5.20;;
10701;SDS011;5402;50.004;8.246;2023-05-14T04:26:57;7.43;;;5.77;;
10701;SDS011;5402;50.004;8.246;2023-05-14T04:29:25;5.70;;;5.10;;
10701;SDS011;5402;50.004;8.246;2023-05-14T04:31:51;6.83;;;5.70;;
10701;SDS011;5402;50.004;8.246;2023-05-14T04:34:18;6.63;;;5.30;;
10701;SDS011;5402;50.004;8.246;2023-05-14T04:36:45;6.47;;;5.50;;
10701;SDS011;5402;50.004;8.246;2023-05-14T04:39:11;5.70;;;5.10;;
10701;SDS011;5402;50.004;8.246;2023-05-14T04:41:39;6.53;;;5.33;;
10701;SDS011;5402;50.004;8.246;2023-05-14T04:44:06;5.80;;;5.20;;
10701;SDS011;5402;50.004;8.246;2023-05-14T04:46:34;5.63;;;5.00;;
10701;SDS011;5402;50.004;8.246;2023-05-14T04:49:01;6.47;;;5.17;;
10701;SDS011;5402;50.004;8.246;2023-05-14T04:51:28;5.40;;;4.90;;
10701;SDS011;5402;50.004;8.246;2023-05-14T04:53:54;7.00;;;4.97;;
10701;SDS011;5402;50.004;8.246;2023-05-14T04:56:21;7.07;;;5.10;;
10701;SDS011;5402;50.004;8.246;2023-05-14T04:58:48;5.97;;;4.97;;
10701;SDS011;5402;50.004;8.246;2023-05-14T05:01:14;5.53;;;5.00;;
10701;SDS011;5402;50.004;8.246;2023-05-14T05:03:42;5.73;;;5.03;;
10701;SDS011;5402;50.004;8.246;2023-05-14T05:06:09;5.37;;;4.87;;
10701;SDS011;5402;50.004;8.246;2023-05-14T05:08:36;5.73;;;5.13;;
10701;SDS011;5402;50.004;8.246;2023-05-14T05:11:03;5.97;;;5.30;;
10701;SDS011;5402;50.004;8.246;2023-05-14T05:13:30;5.70;;;5.10;;
10701;SDS011;5402;50.004;8.246;2023-05-14T05:15:57;6.20;;;4.90;;
10701;SDS011;5402;50.004;8.246;2023-05-14T05:18:24;7.43;;;5.83;;
10701;SDS011;5402;50.004;8.246;2023-05-14T05:20:52;6.70;;;6.00;;
10701;SDS011;5402;50.004;8.246;2023-05-14T05:23:18;7.97;;;6.50;;
10701;SDS011;5402;50.004;8.246;2023-05-14T05:25:45;6.63;;;5.83;;
10701;SDS011;5402;50.004;8.246;2023-05-14T05:28:12;8.43;;;6.23;;
10701;SDS011;5402;50.004;8.246;2023-05-14T05:30:38;8.63;;;6.80;;
10701;SDS011;5402;50.004;8.246;2023-05-14T05:33:05;7.33;;;6.10;;
10701;SDS011;5402;50.004;8.246;2023-05-14T05:35:32;8.40;;;6.03;;
10701;SDS011;5402;50.004;8.246;2023-05-14T05:38:00;8.53;;;5.73;;
10701;SDS011;5402;50.004;8.246;2023-05-14T05:40:27;8.30;;;5.97;;
10701;SDS011;5402;50.004;8.246;2023-05-14T05:42:54;9.03;;;5.60;;
10701;SDS011;5402;50.004;8.246;2023-05-14T05:45:21;5.57;;;5.03;;
10701;SDS011;5402;50.004;8.246;2023-05-14T05:47:47;6.73;;;5.13;;
10701;SDS011;5402;50.004;8.246;2023-05-14T05:50:14;8.80;;;5.23;;
10701;SDS011;5402;50.004;8.246;2023-05-14T05:52:41;9.77;;;5.50;;
10701;SDS011;5402;50.004;8.246;2023-05-14T05:55:09;7.00;;;5.60;;
10701;SDS011;5402;50.004;8.246;2023-05-14T05:57:36;5.70;;;5.00;;
10701;SDS011;5402;50.004;8.246;2023-05-14T06:00:03;5.97;;;5.37;;
10701;SDS011;5402;50.004;8.246;2023-05-14T06:02:36;6.00;;;5.40;;
10701;SDS011;5402;50.004;8.246;2023-05-14T06:05:03;5.77;;;4.53;;
10701;SDS011;5402;50.004;8.246;2023-05-14T06:07:31;9.33;;;4.83;;
10701;SDS011;5402;50.004;8.246;2023-05-14T06:09:58;5.30;;;4.70;;
10701;SDS011;5402;50.004;8.246;2023-05-14T06:12:26;4.60;;;4.10;;
10701;SDS011;5402;50.004;8.246;2023-05-14T06:14:53;4.43;;;4.03;;
10701;SDS011;5402;50.004;8.246;2023-05-14T06:17:21;5.03;;;4.00;;
10701;SDS011;5402;50.004;8.246;2023-05-14T06:19:51;5.23;;;3.60;;
10701;SDS011;5402;50.004;8.246;2023-05-14T06:22:18;4.53;;;4.13;;
10701;SDS011;5402;50.004;8.246;2023-05-14T06:24:44;3.80;;;3.40;;
10701;SDS011;5402;50.004;8.246;2023-05-14T06:27:11;3.77;;;3.47;;
10701;SDS011;5402;50.004;8.246;2023-05-14T06:29:39;3.60;;;3.30;;
10701;SDS011;5402;50.004;8.246;2023-05-14T06:32:06;4.23;;;3.50;;
10701;SDS011;5402;50.004;8.246;2023-05-14T06:34:34;3.93;;;3.50;;
10701;SDS011;5402;50.004;8.246;2023-05-14T06:37:00;4.00;;;3.53;;
10701;SDS011;5402;50.004;8.246;2023-05-14T06:39:28;5.13;;;3.73;;
10701;SDS011;5402;50.004;8.246;2023-05-14T06:41:54;4.27;;;3.40;;
10701;SDS011;5402;50.004;8.246;2023-05-14T06:44:21;3.27;;;2.97;;
10701;SDS011;5402;50.004;8.246;2023-05-14T06:46:49;3.73;;;3.30;;
10701;SDS011;5402;50.004;8.246;2023-05-14T06:49:16;3.47;;;3.17;;
10701;SDS011;5402;50.004;8.246;2023-05-14T06:51:43;3.57;;;3.27;;
10701;SDS011;5402;50.004;8.246;2023-05-14T06:54:11;3.50;;;3.20;;
10701;SDS011;5402;50.004;8.246;2023-05-14T06:56:38;4.40;;;3.50;;
10701;SDS011;5402;50.004;8.246;2023-05-14T06:59:04;3.77;;;3.10;;
10701;SDS011;5402;50.004;8.246;2023-05-14T07:01:31;3.30;;;3.00;;
10701;SDS011;5402;50.004;8.246;2023-05-14T07:03:59;3.53;;;3.23;;
10701;SDS011;5402;50.004;8.246;2023-05-14T07:06:26;3.20;;;2.90;;
10701;SDS011;5402;50.004;8.246;2023-05-14T07:08:53;3.10;;;2.80;;
10701;SDS011;5402;50.004;8.246;2023-05-14T07:11:19;3.30;;;3.00;;
10701;SDS011;5402;50.004;8.246;2023-05-14T07:13:47;3.17;;;2.83;;
10701;SDS011;5402;50.004;8.246;2023-05-14T07:16:13;2.97;;;2.70;;
10701;SDS011;5402;50.004;8.246;2023-05-14T07:18:40;4.93;;;2.70;;
10701;SDS011;5402;50.004;8.246;2023-05-14T07:21:09;3.30;;;2.53;;
10701;SDS011;5402;50.004;8.246;2023-05-14T07:23:36;4.20;;;3.00;;
10701;SDS011;5402;50.004;8.246;2023-05-14T07:26:03;2.97;;;2.77;;
10701;SDS011;5402;50.004;8.246;2023-05-14T07:28:30;3.00;;;2.70;;
10701;SDS011;5402;50.004;8.246;2023-05-14T07:30:57;3.37;;;3.00;;
10701;SDS011;5402;50.004;8.246;2023-05-14T07:33:24;3.10;;;2.67;;
10701;SDS011;5402;50.004;8.246;2023-05-14T07:35:51;3.10;;;2.80;;
10701;SDS011;5402;50.004;8.246;2023-05-14T07:38:20;3.30;;;3.00;;
10701;SDS011;5402;50.004;8.246;2023-05-14T07:40:46;2.80;;;2.60;;
10701;SDS011;5402;50.004;8.246;2023-05-14T07:43:13;3.17;;;2.87;;
10701;SDS011;5402;50.004;8.246;2023-05-14T07:45:40;3.10;;;2.63;;
10701;SDS011;5402;50.004;8.246;2023-05-14T07:48:07;3.10;;;2.80;;
10701;SDS011;5402;50.004;8.246;2023-05-14T07:50:34;4.20;;;2.80;;
10701;SDS011;5402;50.004;8.246;2023-05-14T07:53:02;3.07;;;2.77;;
10701;SDS011;5402;50.004;8.246;2023-05-14T07:55:30;3.13;;;2.83;;
10701;SDS011;5402;50.004;8.246;2023-05-14T07:57:56;3.53;;;2.70;;
10701;SDS011;5402;50.004;8.246;2023-05-14T08:00:23;3.37;;;3.00;;
10701;SDS011;5402;50.004;8.246;2023-05-14T08:02:50;2.90;;;2.70;;
10701;SDS011;5402;50.004;8.246;2023-05-14T08:05:16;4.17;;;2.90;;
10701;SDS011;5402;50.004;8.246;2023-05-14T08:07:43;3.30;;;3.00;;
10701;SDS011;5402;50.004;8.246;2023-05-14T08:10:10;2.93;;;2.73;;
10701;SDS011;5402;50.004;8.246;2023-05-14T08:12:38;3.53;;;3.23;;
10701;SDS011;5402;50.004;8.246;2023-05-14T08:15:06;3.23;;;2.93;;
10701;SDS011;5402;50.004;8.246;2023-05-14T08:17:33;3.17;;;2.87;;
10701;SDS011;5402;50.004;8.246;2023-05-14T08:20:00;3.37;;;3.07;;
10701;SDS011;5402;50.004;8.246;2023-05-14T08:22:27;3.07;;;2.77;;
10701;SDS011;5402;50.004;8.246;2023-05-14T08:24:53;4.00;;;3.60;;
10701;SDS011;5402;50.004;8.246;2023-05-14T08:27:20;5.37;;;3.07;;
10701;SDS011;5402;50.004;8.246;2023-05-14T08:29:48;2.90;;;2.70;;
10701;SDS011;5402;50.004;8.246;2023-05-14T08:32:15;3.10;;;2.80;;
10701;SDS011;5402;50.004;8.246;2023-05-14T08:34:42;4.23;;;3.20;;
10701;SDS011;5402;50.004;8.246;2023-05-14T08:37:09;4.10;;;3.33;;
10701;SDS011;5402;50.004;8.246;2023-05-14T08:39:35;3.37;;;2.83;;
10701;SDS011;5402;50.004;8.246;2023-05-14T08:42:02;3.83;;;2.73;;
10701;SDS011;5402;50.004;8.246;2023-05-14T08:44:33;2.90;;;2.70;;
10701;SDS011;5402;50.004;8.246;2023-05-14T08:47:05;4.80;;;2.57;;
10701;SDS011;5402;50.004;8.246;2023-05-14T08:49:35;3.60;;;2.87;;
10701;SDS011;5402;50.004;8.246;2023-05-14T08:52:06;3.20;;;2.90;;
10701;SDS011;5402;50.004;8.246;2023-05-14T08:54:33;3.43;;;2.80;;
10701;SDS011;5402;50.004;8.246;2023-05-14T08:57:01;3.43;;;3.07;;
10701;SDS011;5402;50.004;8.246;2023-05-14T08:59:28;3.03;;;2.77;;
10701;SDS011;5402;50.004;8.246;2023-05-14T09:01:55;3.57;;;2.53;;
10701;SDS011;5402;50.004;8.246;2023-05-14T09:04:27;2.30;;;2.10;;
10701;SDS011;5402;50.004;8.246;2023-05-14T09:06:55;2.73;;;2.43;;
10701;SDS011;5402;50.004;8.246;2023-05-14T09:09:21;2.80;;;2.50;;
10701;SDS011;5402;50.004;8.246;2023-05-14T09:11:49;2.47;;;2.23;;
10701;SDS011;5402;50.004;8.246;2023-05-14T09:14:17;3.30;;;2.50;;
10701;SDS011;5402;50.004;8.246;2023-05-14T09:16:45;2.70;;;2.50;;
10701;SDS011;5402;50.004;8.246;2023-05-14T09:19:13;3.30;;;2.50;;
10701;SDS011;5402;50.004;8.246;2023-05-14T09:21:44;2.40;;;2.20;;
10701;SDS011;5402;50.004;8.246;2023-05-14T09:24:17;2.60;;;2.30;;
10701;SDS011;5402;50.004;8.246;2023-05-14T09:26:48;2.30;;;2.10;;
10701;SDS011;5402;50.004;8.246;2023-05-14T09:29:15;2.28;;;2.08;;
10701;SDS011;5402;50.004;8.246;2023-05-14T09:31:42;2.90;;;2.60;;
10701;SDS011;5402;50.004;8.246;2023-05-14T09:34:09;2.60;;;2.40;;
10701;SDS011;5402;50.004;8.246;2023-05-14T09:36:36;2.78;;;2.50;;
10701;SDS011;5402;50.004;8.246;2023-05-14T09:39:04;2.77;;;2.50;;
10701;SDS011;5402;50.004;8.246;2023-05-14T09:41:31;2.43;;;2.23;;
10701;SDS011;5402;50.004;8.246;2023-05-14T09:43:57;2.90;;;2.20;;
10701;SDS011;5402;50.004;8.246;2023-05-14T09:46:26;2.50;;;2.30;;
10701;SDS011;5402;50.004;8.246;2023-05-14T09:48:55;2.67;;;2.00;;
10701;SDS011;5402;50.004;8.246;2023-05-14T09:51:22;2.90;;;2.40;;
10701;SDS011;5402;50.004;8.246;2023-05-14T09:53:49;2.40;;;2.20;;
10701;SDS011;5402;50.004;8.246;2023-05-14T09:56:19;2.53;;;2.33;;
10701;SDS011;5402;50.004;8.246;2023-05-14T09:58:46;3.27;;;2.97;;
10701;SDS011;5402;50.004;8.246;2023-05-14T10:01:13;3.33;;;2.70;;
10701;SDS011;5402;50.004;8.246;2023-05-14T10:03:43;2.97;;;2.65;;
10701;SDS011;5402;50.004;8.246;2023-05-14T10:06:10;2.73;;;2.53;;
10701;SDS011;5402;50.004;8.246;2023-05-14T10:08:40;2.87;;;2.67;;
10701;SDS011;5402;50.004;8.246;2023-05-14T10:11:10;2.67;;;2.47;;
10701;SDS011;5402;50.004;8.246;2023-05-14T10:13:43;2.50;;;2.30;;
10701;SDS011;5402;50.004;8.246;2023-05-14T10:16:15;2.67;;;2.47;;
10701;SDS011;5402;50.004;8.246;2023-05-14T10:18:48;2.60;;;2.40;;
10701;SDS011;5402;50.004;8.246;2023-05-14T10:21:19;6.35;;;2.90;;
10701;SDS011;5402;50.004;8.246;2023-05-14T10:23:47;3.50;;;2.20;;
10701;SDS011;5402;50.004;8.246;2023-05-14T10:26:15;2.83;;;2.42;;
10701;SDS011;5402;50.004;8.246;2023-05-14T10:28:43;3.38;;;2.35;;
10701;SDS011;5402;50.004;8.246;2023-05-14T10:31:11;2.30;;;2.10;;
10701;SDS011;5402;50.004;8.246;2023-05-14T10:33:49;3.97;;;2.30;;
10701;SDS011;5402;50.004;8.246;2023-05-14T10:36:16;3.33;;;2.50;;
10701;SDS011;5402;50.004;8.246;2023-05-14T10:38:43;3.00;;;2.70;;
10701;SDS011;5402;50.004;8.246;2023-05-14T10:41:10;2.95;;;2.70;;
10701;SDS011;5402;50.004;8.246;2023-05-14T10:43:39;2.60;;;2.40;;
10701;SDS011;5402;50.004;8.246;2023-05-14T10:46:08;2.55;;;2.35;;
10701;SDS011;5402;50.004;8.246;2023-05-14T10:48:38;3.22;;;2.50;;
10701;SDS011;5402;50.004;8.246;2023-05-14T10:51:06;5.07;;;2.35;;
10701;SDS011;5402;50.004;8.246;2023-05-14T10:53:35;3.92;;;2.83;;
10701;SDS011;5402;50.004;8.246;2023-05-14T10:56:04;2.95;;;2.63;;
10701;SDS011;5402;50.004;8.246;2023-05-14T10:58:33;3.17;;;2.88;;
10701;SDS011;5402;50.004;8.246;2023-05-14T11:01:01;3.05;;;2.78;;
10701;SDS011;5402;50.004;8.246;2023-05-14T11:03:31;6.63;;;5.32;;
10701;SDS011;5402;50.004;8.246;2023-05-14T11:06:04;3.55;;;2.83;;
10701;SDS011;5402;50.004;8.246;2023-05-14T11:08:32;2.83;;;2.57;;
10701;SDS011;5402;50.004;8.246;2023-05-14T11:10:59;3.10;;;2.80;;
10701;SDS011;5402;50.004;8.246;2023-05-14T11:13:25;2.93;;;2.63;;
10701;SDS011;5402;50.004;8.246;2023-05-14T11:15:52;2.63;;;2.40;;
10701;SDS011;5402;50.004;8.246;2023-05-14T11:18:27;2.72;;;2.40;;
10701;SDS011;5402;50.004;8.246;2023-05-14T11:20:58;2.80;;;2.60;;
10701;SDS011;5402;50.004;8.246;2023-05-14T11:23:26;2.83;;;2.47;;
10701;SDS011;5402;50.004;8.246;2023-05-14T11:25:53;2.50;;;2.28;;
10701;SDS011;5402;50.004;8.246;2023-05-14T11:28:20;4.07;;;2.85;;
10701;SDS011;5402;50.004;8.246;2023-05-14T11:30:48;3.97;;;2.50;;
10701;SDS011;5402;50.004;8.246;2023-05-14T11:33:15;2.78;;;2.47;;
10701;SDS011;5402;50.004;8.246;2023-05-14T11:35:43;2.50;;;2.30;;
10701;SDS011;5402;50.004;8.246;2023-05-14T11:38:15;2.30;;;2.10;;
10701;SDS011;5402;50.004;8.246;2023-05-14T11:40:42;2.30;;;2.03;;
10701;SDS011;5402;50.004;8.246;2023-05-14T11:43:17;2.55;;;2.30;;
10701;SDS011;5402;50.004;8.246;2023-05-14T11:45:44;4.00;;;2.50;;
10701;SDS011;5402;50.004;8.246;2023-05-14T11:48:14;2.80;;;2.05;;
10701;SDS011;5402;50.004;8.246;2023-05-14T11:50:43;2.40;;;2.20;;
10701;SDS011;5402;50.004;8.246;2023-05-14T11:53:10;2.58;;;2.28;;
10701;SDS011;5402;50.004;8.246;2023-05-14T11:55:42;2.30;;;2.10;;
10701;SDS011;5402;50.004;8.246;2023-05-14T11:58:09;2.33;;;2.13;;
10701;SDS011;5402;50.004;8.246;2023-05-14T12:00:36;2.55;;;2.35;;
10701;SDS011;5402;50.004;8.246;2023-05-14T12:03:03;3.05;;;2.15;;
10701;SDS011;5402;50.004;8.246;2023-05-14T12:05:30;2.20;;;2.00;;
10701;SDS011;5402;50.004;8.246;2023-05-14T12:07:57;2.58;;;2.20;;
10701;SDS011;5402;50.004;8.246;2023-05-14T12:10:25;2.30;;;2.10;;
10701;SDS011;5402;50.004;8.246;2023-05-14T12:12:51;2.15;;;2.05;;
10701;SDS011;5402;50.004;8.246;2023-05-14T12:15:18;3.95;;;2.25;;
10701;SDS011;5402;50.004;8.246;2023-05-14T12:17:48;2.30;;;2.10;;
10701;SDS011;5402;50.004;8.246;2023-05-14T12:20:15;2.50;;;2.30;;
10701;SDS011;5402;50.004;8.246;2023-05-14T12:22:43;2.60;;;2.40;;
10701;SDS011;5402;50.004;8.246;2023-05-14T12:25:10;2.78;;;2.50;;
10701;SDS011;5402;50.004;8.246;2023-05-14T12:27:40;2.50;;;2.30;;
10701;SDS011;5402;50.004;8.246;2023-05-14T12:30:10;2.05;;;1.95;;
10701;SDS011;5402;50.004;8.246;2023-05-14T12:32:38;2.42;;;2.22;;
10701;SDS011;5402;50.004;8.246;2023-05-14T12:35:05;3.10;;;2.03;;
10701;SDS011;5402;50.004;8.246;2023-05-14T12:37:33;2.30;;;2.10;;
10701;SDS011;5402;50.004;8.246;2023-05-14T12:40:01;2.53;;;2.20;;
10701;SDS011;5402;50.004;8.246;2023-05-14T12:42:30;2.30;;;2.10;;
10701;SDS011;5402;50.004;8.246;2023-05-14T12:44:58;2.45;;;2.20;;
10701;SDS011;5402;50.004;8.246;2023-05-14T12:47:29;2.47;;;2.28;;
10701;SDS011;5402;50.004;8.246;2023-05-14T12:49:56;2.50;;;2.30;;
10701;SDS011;5402;50.004;8.246;2023-05-14T12:52:23;2.10;;;2.00;;
10701;SDS011;5402;50.004;8.246;2023-05-14T12:54:49;2.58;;;2.38;;
10701;SDS011;5402;50.004;8.246;2023-05-14T12:57:16;3.55;;;2.97;;
10701;SDS011;5402;50.004;8.246;2023-05-14T12:59:43;4.95;;;2.80;;
10701;SDS011;5402;50.004;8.246;2023-05-14T13:02:11;2.70;;;2.50;;
10701;SDS011;5402;50.004;8.246;2023-05-14T13:04:39;2.65;;;2.38;;
10701;SDS011;5402;50.004;8.246;2023-05-14T13:07:06;3.63;;;2.40;;
10701;SDS011;5402;50.004;8.246;2023-05-14T13:09:33;2.85;;;2.30;;
10701;SDS011;5402;50.004;8.246;2023-05-14T13:12:00;3.00;;;2.30;;
10701;SDS011;5402;50.004;8.246;2023-05-14T13:14:27;2.35;;;2.15;;
10701;SDS011;5402;50.004;8.246;2023-05-14T13:16:53;2.22;;;2.03;;
10701;SDS011;5402;50.004;8.246;2023-05-14T13:19:21;2.17;;;2.08;;
10701;SDS011;5402;50.004;8.246;2023-05-14T13:21:48;2.33;;;2.13;;
10701;SDS011;5402;50.004;8.246;2023-05-14T13:24:15;2.40;;;2.20;;
10701;SDS011;5402;50.004;8.246;2023-05-14T13:26:42;2.33;;;2.13;;
10701;SDS011;5402;50.004;8.246;2023-05-14T13:29:09;2.35;;;2.15;;
10701;SDS011;5402;50.004;8.246;2023-05-14T13:31:35;2.42;;;2.20;;
10701;SDS011;5402;50.004;8.246;2023-05-14T13:34:02;2.40;;;2.20;;
10701;SDS011;5402;50.004;8.246;2023-05-14T13:36:30;2.13;;;1.75;;
10701;SDS011;5402;50.004;8.246;2023-05-14T13:38:57;3.05;;;2.15;;
10701;SDS011;5402;50.004;8.246;2023-05-14T13:41:24;3.33;;;2.10;;
10701;SDS011;5402;50.004;8.246;2023-05-14T13:43:51;2.30;;;2.10;;
10701;SDS011;5402;50.004;8.246;2023-05-14T13:46:17;2.28;;;2.08;;
10701;SDS011;5402;50.004;8.246;2023-05-14T13:48:44;2.40;;;2.20;;
10701;SDS011;5402;50.004;8.246;2023-05-14T13:51:11;3.95;;;2.40;;
10701;SDS011;5402;50.004;8.246;2023-05-14T13:53:39;2.88;;;1.90;;
10701;SDS011;5402;50.004;8.246;2023-05-14T13:56:05;3.28;;;2.30;;
10701;SDS011;5402;50.004;8.246;2023-05-14T13:58:32;1.98;;;1.88;;
10701;SDS011;5402;50.004;8.246;2023-05-14T14:00:59;2.08;;;1.92;;
10701;SDS011;5402;50.004;8.246;2023-05-14T14:03:26;2.00;;;1.90;;
10701;SDS011;5402;50.004;8.246;2023-05-14T14:05:52;2.70;;;2.50;;
10701;SDS011;5402;50.004;8.246;2023-05-14T14:08:19;2.53;;;2.33;;
10701;SDS011;5402;50.004;8.246;2023-05-14T14:10:47;3.17;;;2.35;;
10701;SDS011;5402;50.004;8.246;2023-05-14T14:13:14;2.60;;;2.40;;
10701;SDS011;5402;50.004;8.246;2023-05-14T14:15:41;2.33;;;2.15;;
10701;SDS011;5402;50.004;8.246;2023-05-14T14:18:08;3.38;;;2.38;;
10701;SDS011;5402;50.004;8.246;2023-05-14T14:20:35;2.33;;;2.13;;
10701;SDS011;5402;50.004;8.246;2023-05-14T14:23:01;2.75;;;2.38;;
10701;SDS011;5402;50.004;8.246;2023-05-14T14:25:28;1.90;;;1.70;;
10701;SDS011;5402;50.004;8.246;2023-05-14T14:27:57;2.30;;;2.10;;
10701;SDS011;5402;50.004;8.246;2023-05-14T14:30:23;2.63;;;2.42;;
10701;SDS011;5402;50.004;8.246;2023-05-14T14:32:50;2.47;;;2.00;;
10701;SDS011;5402;50.004;8.246;2023-05-14T14:35:18;3.22;;;2.13;;
10701;SDS011;5402;50.004;8.246;2023-05-14T14:37:45;2.22;;;2.03;;
10701;SDS011;5402;50.004;8.246;2023-05-14T14:40:14;3.00;;;2.05;;
10701;SDS011;5402;50.004;8.246;2023-05-14T14:42:42;3.50;;;2.00;;
10701;SDS011;5402;50.004;8.246;2023-05-14T14:45:10;2.42;;;2.20;;
10701;SDS011;5402;50.004;8.246;2023-05-14T14:47:37;2.45;;;2.22;;
10701;SDS011;5402;50.004;8.246;2023-05-14T14:50:07;2.42;;;2.20;;
10701;SDS011;5402;50.004;8.246;2023-05-14T14:52:35;2.38;;;2.17;;
10701;SDS011;5402;50.004;8.246;2023-05-14T14:55:02;2.58;;;2.38;;
10701;SDS011;5402;50.004;8.246;2023-05-14T14:57:29;4.05;;;2.00;;
10701;SDS011;5402;50.004;8.246;2023-05-14T14:59:55;2.30;;;2.10;;
10701;SDS011;5402;50.004;8.246;2023-05-14T15:02:24;2.65;;;2.45;;